Time;durP1;ratioP1;P1;durP2;ratioP2;P2;SDS_P1;SDS_P2;PMS_P1;PMS_P2;Temp;Humidity;BMP_temperature;BMP_pressure;BME280_temperature;BME280_humidity;BME280_pressure;Samples;Min_cycle;Max_cycle;Signal;HPM_P1;HPM_P2
2023/01/08 00:01:29;;;;;;;1.10;0.82;;;18.10;58.00;;;;;;5053104;28;20174;-65
2023/01/08 00:03:55;;;;;;;1.15;1.00;;;18.10;58.10;;;;;;5052224;28;20252;-66
2023/01/08 00:06:20;;;;;;;1.30;1.20;;;18.10;58.00;;;;;;5052683;28;20581;-64
2023/01/08 00:08:46;;;;;;;0.90;0.90;;;18.00;58.00;;;;;;5052709;28;20213;-64
2023/01/08 00:11:12;;;;;;;1.02;0.93;;;18.10;58.10;;;;;;5052337;28;20171;-64
2023/01/08 00:13:37;;;;;;;0.80;0.80;;;18.10;58.10;;;;;;5052621;28;20171;-64
2023/01/08 00:16:11;;;;;;;1.10;1.00;;;18.00;58.00;;;;;;5052844;28;20210;-65
2023/01/08 00:18:37;;;;;;;1.05;0.98;;;18.10;58.10;;;;;;5052006;28;20175;-65
2023/01/08 00:21:02;;;;;;;1.15;1.00;;;18.00;58.00;;;;;;5052345;28;20235;-65
2023/01/08 00:23:28;;;;;;;1.92;1.25;;;18.00;58.00;;;;;;5052705;28;20194;-65
2023/01/08 00:25:53;;;;;;;0.95;0.95;;;18.00;58.00;;;;;;5051852;28;20179;-64
2023/01/08 00:28:22;;;;;;;1.77;0.98;;;18.00;58.00;;;;;;5052745;28;20183;-64
2023/01/08 00:30:47;;;;;;;1.15;1.00;;;18.00;58.00;;;;;;5052068;28;20551;-64
2023/01/08 00:33:13;;;;;;;1.02;0.90;;;17.90;58.00;;;;;;5052707;28;20175;-65
2023/01/08 00:35:39;;;;;;;0.82;0.82;;;18.00;58.00;;;;;;5052055;28;20202;-65
2023/01/08 00:38:04;;;;;;;1.10;1.00;;;17.90;57.90;;;;;;5051849;28;20257;-65
2023/01/08 00:40:30;;;;;;;1.45;1.23;;;18.00;58.00;;;;;;5052352;28;20203;-66
2023/01/08 00:42:55;;;;;;;1.10;1.00;;;17.90;58.00;;;;;;5055134;28;20174;-65
2023/01/08 00:45:21;;;;;;;1.92;1.10;;;17.90;58.00;;;;;;5056142;28;20216;-66
2023/01/08 00:47:46;;;;;;;0.95;0.95;;;17.90;58.00;;;;;;5056078;28;20213;-64
2023/01/08 00:50:12;;;;;;;1.58;1.08;;;17.90;58.00;;;;;;5056715;28;20181;-64
2023/01/08 00:52:37;;;;;;;1.17;1.00;;;17.90;58.00;;;;;;5055677;28;20193;-64
2023/01/08 00:55:03;;;;;;;1.27;1.10;;;17.90;58.00;;;;;;5056047;28;20546;-64
2023/01/08 00:57:36;;;;;;;1.60;1.00;;;17.90;58.00;;;;;;5056441;28;20178;-65
2023/01/08 01:00:03;;;;;;;1.08;1.05;;;17.90;58.00;;;;;;5055691;28;20646;-65
2023/01/08 01:02:29;;;;;;;1.25;1.15;;;17.90;58.00;;;;;;5056000;28;20595;-65
2023/01/08 01:04:54;;;;;;;1.67;1.20;;;17.90;58.00;;;;;;5055960;28;20225;-65
2023/01/08 01:07:20;;;;;;;1.10;1.00;;;17.90;58.00;;;;;;5055565;28;20220;-64
2023/01/08 01:09:45;;;;;;;1.10;1.00;;;17.80;57.90;;;;;;5055707;28;20221;-64
2023/01/08 01:12:11;;;;;;;1.85;1.00;;;17.80;57.90;;;;;;5056242;28;20222;-64
2023/01/08 01:14:37;;;;;;;1.10;1.00;;;17.80;57.90;;;;;;5055206;28;20245;-65
2023/01/08 01:17:02;;;;;;;1.30;1.20;;;17.80;57.90;;;;;;5055687;28;20171;-65
2023/01/08 01:19:28;;;;;;;1.05;1.00;;;17.80;57.90;;;;;;5055936;28;20250;-64
2023/01/08 01:21:53;;;;;;;1.30;1.20;;;17.80;57.90;;;;;;5055065;28;20266;-65
2023/01/08 01:24:22;;;;;;;1.17;1.15;;;17.80;57.90;;;;;;5055877;28;20199;-64
2023/01/08 01:26:48;;;;;;;1.30;1.20;;;17.80;57.90;;;;;;5055608;28;20518;-64
2023/01/08 01:29:13;;;;;;;1.30;1.20;;;17.80;58.00;;;;;;5055500;28;20661;-64
2023/01/08 01:31:39;;;;;;;2.13;1.02;;;17.80;57.90;;;;;;5055243;28;20183;-64
2023/01/08 01:34:04;;;;;;;1.30;1.20;;;17.80;57.90;;;;;;5055149;28;20629;-65
2023/01/08 01:36:30;;;;;;;2.08;1.20;;;17.80;58.60;;;;;;5055419;28;20314;-65
2023/01/08 01:38:56;;;;;;;1.10;1.10;;;17.70;58.00;;;;;;5055209;28;20235;-65
2023/01/08 01:41:29;;;;;;;1.05;1.00;;;17.80;58.00;;;;;;5055143;28;20179;-66
2023/01/08 01:43:58;;;;;;;1.10;1.00;;;17.70;57.90;;;;;;5055142;28;20172;-65
2023/01/08 01:46:37;;;;;;;1.38;1.27;;;17.70;57.90;;;;;;5055631;28;20179;-65
2023/01/08 01:49:10;;;;;;;1.20;1.10;;;17.70;57.90;;;;;;5055003;28;20179;-64
2023/01/08 01:51:36;;;;;;;1.25;1.15;;;17.70;57.90;;;;;;5054308;28;20180;-65
2023/01/08 01:54:02;;;;;;;0.90;0.90;;;17.70;57.90;;;;;;5054250;28;20171;-64
2023/01/08 01:56:28;;;;;;;0.95;0.85;;;17.70;57.90;;;;;;5053592;28;20213;-65
2023/01/08 01:58:53;;;;;;;1.98;1.30;;;17.70;58.10;;;;;;5053506;28;20183;-65
2023/01/08 02:01:19;;;;;;;0.80;0.80;;;17.70;57.90;;;;;;5055096;28;20182;-65
2023/01/08 02:03:44;;;;;;;1.55;1.17;;;17.70;57.90;;;;;;5054473;28;20167;-66
2023/01/08 02:06:44;;;;;;;1.30;1.20;;;17.70;57.90;;;;;;5055279;28;20182;-65
2023/01/08 02:09:34;;;;;;;1.30;1.10;;;17.70;57.90;;;;;;5053467;28;20232;-64
2023/01/08 02:12:18;;;;;;;1.60;1.50;;;17.70;57.80;;;;;;5054673;28;20254;-65
2023/01/08 02:15:13;;;;;;;1.10;1.10;;;17.70;57.90;;;;;;5053706;28;20256;-65
2023/01/08 02:18:07;;;;;;;1.30;1.20;;;17.70;57.80;;;;;;5052925;28;20183;-65
2023/01/08 02:20:37;;;;;;;1.35;1.25;;;17.70;57.90;;;;;;5052994;28;20231;-66
2023/01/08 02:23:41;;;;;;;1.25;1.15;;;17.70;57.80;;;;;;5053553;28;20572;-65
2023/01/08 02:26:16;;;;;;;1.20;1.10;;;17.60;57.80;;;;;;5053292;28;20190;-64
2023/01/08 02:28:52;;;;;;;1.67;1.17;;;17.60;57.80;;;;;;5054260;28;20224;-64
2023/01/08 02:31:17;;;;;;;1.05;0.90;;;17.60;57.80;;;;;;5053230;28;20221;-64
2023/01/08 02:33:43;;;;;;;1.30;1.20;;;17.60;57.80;;;;;;5052889;28;20179;-65
2023/01/08 02:36:30;;;;;;;1.38;1.27;;;17.60;57.80;;;;;;5054239;28;20268;-66
2023/01/08 02:39:07;;;;;;;1.40;1.13;;;17.60;57.80;;;;;;5053923;28;20179;-65
2023/01/08 02:41:51;;;;;;;1.98;1.17;;;17.60;57.70;;;;;;5054093;28;20182;-65
2023/01/08 02:44:20;;;;;;;1.25;1.15;;;17.50;57.70;;;;;;5052884;28;20171;-66
2023/01/08 02:46:46;;;;;;;1.55;0.88;;;17.60;57.70;;;;;;5053671;28;20250;-65
2023/01/08 02:49:12;;;;;;;1.10;1.00;;;17.60;57.80;;;;;;5052989;28;20652;-65
2023/01/08 02:51:43;;;;;;;1.23;1.00;;;17.60;57.80;;;;;;5052111;28;20214;-64
2023/01/08 02:54:14;;;;;;;1.15;0.90;;;17.60;57.70;;;;;;5036396;28;20183;-64
2023/01/08 02:56:42;;;;;;;1.50;1.40;;;17.50;57.70;;;;;;5036494;28;20282;-64
2023/01/08 02:59:08;;;;;;;1.42;1.10;;;17.50;57.70;;;;;;5052738;28;20237;-64
2023/01/08 03:01:34;;;;;;;1.25;1.15;;;17.50;57.70;;;;;;5035643;28;20187;-65
2023/01/08 03:04:03;;;;;;;1.77;1.17;;;17.50;57.80;;;;;;5052008;28;20182;-65
2023/01/08 03:06:29;;;;;;;1.20;1.08;;;17.60;57.80;;;;;;5036245;28;20257;-65
2023/01/08 03:08:54;;;;;;;1.30;1.20;;;17.50;57.70;;;;;;5052388;28;20228;-65
2023/01/08 03:11:21;;;;;;;1.23;1.13;;;17.50;57.70;;;;;;5054069;28;20171;-64
2023/01/08 03:13:56;;;;;;;1.15;1.05;;;17.60;57.80;;;;;;5035280;28;20641;-65
2023/01/08 03:16:31;;;;;;;1.00;1.00;;;17.50;57.70;;;;;;5053387;28;20684;-65
2023/01/08 03:19:40;;;;;;;1.45;1.10;;;17.50;57.70;;;;;;5036170;28;20182;-66
2023/01/08 03:22:08;;;;;;;1.33;1.20;;;17.50;57.70;;;;;;5031495;28;20210;-65
2023/01/08 03:24:34;;;;;;;1.23;1.08;;;17.50;57.70;;;;;;5048962;28;20328;-64
2023/01/08 03:27:01;;;;;;;1.25;1.15;;;17.50;57.70;;;;;;5051675;28;20635;-63
2023/01/08 03:29:27;;;;;;;1.45;1.35;;;17.50;57.70;;;;;;5052320;28;20226;-64
2023/01/08 03:31:59;;;;;;;1.20;1.08;;;17.40;57.60;;;;;;5053387;28;20652;-63
2023/01/08 03:34:24;;;;;;;1.55;0.90;;;17.40;57.60;;;;;;5051369;28;20673;-65
2023/01/08 03:36:50;;;;;;;1.20;1.10;;;17.50;57.60;;;;;;5051727;28;20270;-64
2023/01/08 03:39:19;;;;;;;1.20;1.10;;;17.40;57.50;;;;;;5035452;28;20656;-64
2023/01/08 03:41:45;;;;;;;0.80;0.80;;;17.40;57.50;;;;;;5051486;28;20187;-65
2023/01/08 03:44:10;;;;;;;0.82;0.82;;;17.40;57.50;;;;;;5053209;28;20171;-64
2023/01/08 03:46:46;;;;;;;1.10;1.00;;;17.40;57.50;;;;;;5051867;28;20262;-64
2023/01/08 03:49:12;;;;;;;1.38;1.13;;;17.50;57.60;;;;;;5035922;28;20604;-64
2023/01/08 03:51:44;;;;;;;2.75;1.30;;;17.40;57.50;;;;;;5051239;28;20256;-63
2023/01/08 03:54:12;;;;;;;1.73;1.00;;;17.40;57.50;;;;;;5051995;28;20179;-64
2023/01/08 03:56:38;;;;;;;0.90;0.90;;;17.40;57.50;;;;;;5051125;28;20218;-63
2023/01/08 03:59:03;;;;;;;1.42;1.30;;;17.40;57.50;;;;;;5053024;28;20531;-63
2023/01/08 04:01:29;;;;;;;1.20;1.10;;;17.40;57.50;;;;;;5053231;28;20645;-64
2023/01/08 04:03:54;;;;;;;2.30;1.40;;;17.40;57.50;;;;;;5051967;28;20630;-64
2023/01/08 04:06:20;;;;;;;1.05;0.95;;;17.30;57.50;;;;;;5052869;28;20171;-65
2023/01/08 04:08:49;;;;;;;1.45;1.30;;;17.40;57.50;;;;;;5052042;28;20640;-64
2023/01/08 04:11:14;;;;;;;1.35;0.90;;;17.30;57.50;;;;;;5052554;28;20218;-63
2023/01/08 04:13:40;;;;;;;1.38;1.10;;;17.40;57.50;;;;;;5052576;28;20210;-64
2023/01/08 04:16:06;;;;;;;3.22;1.13;;;17.40;57.50;;;;;;5052099;28;20247;-63
2023/01/08 04:18:32;;;;;;;1.92;0.80;;;17.40;57.50;;;;;;5052256;28;20175;-64
2023/01/08 04:20:58;;;;;;;0.90;0.90;;;17.40;57.50;;;;;;5052693;28;20280;-64
2023/01/08 04:23:23;;;;;;;1.55;0.95;;;17.30;57.50;;;;;;5052543;28;20183;-64
2023/01/08 04:25:49;;;;;;;1.77;1.10;;;17.30;57.50;;;;;;5052431;28;20537;-63
2023/01/08 04:28:14;;;;;;;3.10;1.05;;;17.30;57.50;;;;;;5052845;28;20584;-63
2023/01/08 04:30:40;;;;;;;1.20;0.88;;;17.30;57.50;;;;;;5051892;28;20629;-64
2023/01/08 04:33:05;;;;;;;1.30;1.00;;;17.30;57.50;;;;;;5052428;28;20167;-64
2023/01/08 04:35:31;;;;;;;1.33;1.08;;;17.30;57.50;;;;;;5052185;28;20260;-64
2023/01/08 04:37:56;;;;;;;0.98;0.88;;;17.30;58.10;;;;;;5052133;28;20600;-65
2023/01/08 04:40:22;;;;;;;0.80;0.80;;;17.30;57.50;;;;;;5052338;28;20713;-64
2023/01/08 04:42:47;;;;;;;2.50;1.10;;;17.30;57.50;;;;;;5052219;28;20288;-64
2023/01/08 04:45:13;;;;;;;0.90;0.90;;;17.30;57.50;;;;;;5052183;28;20273;-64
2023/01/08 04:47:38;;;;;;;2.13;1.00;;;17.30;57.50;;;;;;5051896;28;20177;-64
2023/01/08 04:50:04;;;;;;;1.75;1.20;;;17.30;57.50;;;;;;5052470;28;20179;-64
2023/01/08 04:52:30;;;;;;;0.82;0.80;;;17.30;57.50;;;;;;5051858;28;20179;-63
2023/01/08 04:54:55;;;;;;;1.10;0.90;;;17.30;57.50;;;;;;5052234;28;20238;-64
2023/01/08 04:57:21;;;;;;;1.05;1.00;;;17.30;57.50;;;;;;5052552;28;20258;-63
2023/01/08 04:59:46;;;;;;;1.40;1.10;;;17.30;57.50;;;;;;5051626;28;20629;-64
2023/01/08 05:02:11;;;;;;;1.55;1.08;;;17.30;57.50;;;;;;5052249;28;20733;-64
2023/01/08 05:04:37;;;;;;;0.70;0.70;;;17.30;57.50;;;;;;5052131;28;20309;-64
2023/01/08 05:07:03;;;;;;;0.95;0.90;;;17.20;57.50;;;;;;5051571;28;20266;-64
2023/01/08 05:09:28;;;;;;;1.13;1.02;;;17.30;57.50;;;;;;5052560;28;20256;-64
2023/01/08 05:11:54;;;;;;;0.93;0.90;;;17.20;57.40;;;;;;5051769;28;20175;-64
2023/01/08 05:14:19;;;;;;;0.82;0.82;;;17.20;57.50;;;;;;5052261;28;20187;-64
2023/01/08 05:16:46;;;;;;;1.08;0.85;;;17.20;57.50;;;;;;5052086;28;20264;-64
2023/01/08 05:19:12;;;;;;;1.27;0.77;;;17.20;57.50;;;;;;5051804;28;20207;-64
2023/01/08 05:21:37;;;;;;;1.27;0.82;;;17.20;57.40;;;;;;5051672;28;20667;-64
2023/01/08 05:24:03;;;;;;;1.33;1.00;;;17.20;57.50;;;;;;5052409;28;20262;-63
2023/01/08 05:26:28;;;;;;;1.10;1.00;;;17.20;57.50;;;;;;5051858;28;20541;-63
2023/01/08 05:28:54;;;;;;;2.17;1.00;;;17.20;57.60;;;;;;5055229;28;20163;-63
2023/01/08 05:31:19;;;;;;;1.98;1.25;;;17.20;57.50;;;;;;5055903;28;20225;-64
2023/01/08 05:33:45;;;;;;;0.82;0.80;;;17.20;57.50;;;;;;5054954;28;20179;-64
2023/01/08 05:36:11;;;;;;;1.67;0.82;;;17.20;57.50;;;;;;5055323;28;20666;-65
2023/01/08 05:38:37;;;;;;;0.73;0.73;;;17.20;57.50;;;;;;5055531;28;20171;-65
2023/01/08 05:41:03;;;;;;;0.98;0.80;;;17.20;57.50;;;;;;5055017;28;20587;-65
2023/01/08 05:43:28;;;;;;;1.65;0.90;;;17.20;57.50;;;;;;5055372;28;20233;-65
2023/01/08 05:45:57;;;;;;;1.65;0.90;;;17.20;57.50;;;;;;5055367;28;20642;-64
2023/01/08 05:48:22;;;;;;;1.02;0.80;;;17.20;57.50;;;;;;5054893;28;20258;-64
2023/01/08 05:50:49;;;;;;;0.80;0.70;;;17.20;57.50;;;;;;5054868;28;20210;-64
2023/01/08 05:53:14;;;;;;;0.63;0.60;;;17.10;57.50;;;;;;5055320;28;20633;-63
2023/01/08 05:55:40;;;;;;;1.35;0.63;;;17.20;57.60;;;;;;5054430;28;20292;-64
2023/01/08 05:58:05;;;;;;;0.95;0.82;;;17.10;57.50;;;;;;5055190;28;20174;-63
2023/01/08 06:00:31;;;;;;;1.25;0.90;;;17.10;57.50;;;;;;5054913;28;20638;-64
2023/01/08 06:02:57;;;;;;;1.02;1.02;;;17.20;57.50;;;;;;5054672;28;20171;-64
2023/01/08 06:05:22;;;;;;;1.40;1.10;;;17.10;57.50;;;;;;5054816;28;20617;-65
2023/01/08 06:07:48;;;;;;;1.20;1.10;;;17.10;57.50;;;;;;5054935;28;20167;-64
2023/01/08 06:10:13;;;;;;;1.75;1.50;;;17.10;57.60;;;;;;5054436;28;20179;-63
2023/01/08 06:12:39;;;;;;;0.88;0.82;;;17.10;57.60;;;;;;5054585;28;20175;-64
2023/01/08 06:15:05;;;;;;;2.30;0.70;;;17.10;57.50;;;;;;5054719;28;20210;-63
2023/01/08 06:17:31;;;;;;;0.90;0.77;;;17.10;57.50;;;;;;5053914;28;20183;-64
2023/01/08 06:19:56;;;;;;;1.02;0.93;;;17.10;57.50;;;;;;5054653;28;20222;-64
2023/01/08 06:22:22;;;;;;;1.08;0.90;;;17.10;57.50;;;;;;5054474;28;20190;-63
2023/01/08 06:24:47;;;;;;;1.17;0.80;;;17.10;57.50;;;;;;5054409;28;20710;-63
2023/01/08 06:27:13;;;;;;;1.00;1.00;;;17.10;57.50;;;;;;5054664;28;20691;-63
2023/01/08 06:29:38;;;;;;;1.00;0.88;;;17.10;57.50;;;;;;5053773;28;20621;-63
2023/01/08 06:32:04;;;;;;;1.70;0.90;;;17.10;57.50;;;;;;5054386;28;20172;-64
2023/01/08 06:34:29;;;;;;;2.03;0.75;;;17.10;57.50;;;;;;5054434;28;20229;-64
2023/01/08 06:36:55;;;;;;;1.13;0.90;;;17.10;57.50;;;;;;5053780;28;20684;-64
2023/01/08 06:39:20;;;;;;;0.93;0.70;;;17.00;57.40;;;;;;5054234;28;20178;-65
2023/01/08 06:41:46;;;;;;;0.63;0.63;;;17.00;57.40;;;;;;5054378;28;20171;-65
2023/01/08 06:44:12;;;;;;;1.38;0.98;;;17.00;58.00;;;;;;5053997;28;20217;-65
2023/01/08 06:46:39;;;;;;;1.65;1.00;;;17.00;57.40;;;;;;5053740;28;20585;-64
2023/01/08 06:49:07;;;;;;;1.45;0.90;;;17.00;57.40;;;;;;5054227;28;20217;-64
2023/01/08 06:51:33;;;;;;;1.60;0.80;;;17.00;57.30;;;;;;5053411;28;20209;-64
2023/01/08 06:53:58;;;;;;;0.98;0.90;;;17.10;57.40;;;;;;5053922;28;20171;-64
2023/01/08 06:56:24;;;;;;;0.88;0.75;;;17.00;57.40;;;;;;5054114;28;20215;-64
2023/01/08 06:58:49;;;;;;;1.08;0.88;;;17.00;57.30;;;;;;5053251;28;21150;-64
2023/01/08 07:01:15;;;;;;;1.83;0.60;;;17.00;57.30;;;;;;5053824;28;20172;-66
2023/01/08 07:03:41;;;;;;;0.80;0.70;;;17.00;57.30;;;;;;5053601;28;20175;-64
2023/01/08 07:06:08;;;;;;;1.48;0.90;;;16.90;57.30;;;;;;5053647;28;20191;-64
2023/01/08 07:08:34;;;;;;;1.30;0.98;;;17.00;57.30;;;;;;5036100;28;20179;-64
2023/01/08 07:11:02;;;;;;;0.70;0.70;;;17.00;57.30;;;;;;5054042;28;20175;-63
2023/01/08 07:13:28;;;;;;;1.30;0.80;;;17.00;57.20;;;;;;5053129;28;20639;-64
2023/01/08 07:15:54;;;;;;;1.60;0.63;;;16.90;57.20;;;;;;5053359;28;20249;-63
2023/01/08 07:18:20;;;;;;;1.10;0.60;;;16.90;57.20;;;;;;5053674;28;20552;-64
2023/01/08 07:20:47;;;;;;;1.60;0.70;;;16.90;57.20;;;;;;5052435;28;20223;-64
2023/01/08 07:23:13;;;;;;;0.90;0.80;;;16.90;57.20;;;;;;5053772;28;20583;-63
2023/01/08 07:25:38;;;;;;;1.55;1.02;;;16.90;57.20;;;;;;5052905;28;20171;-65
2023/01/08 07:28:04;;;;;;;2.55;0.80;;;16.90;57.20;;;;;;5053478;28;20221;-63
2023/01/08 07:30:29;;;;;;;1.45;0.90;;;16.90;57.20;;;;;;5053523;28;20233;-64
2023/01/08 07:32:59;;;;;;;1.35;0.90;;;16.90;57.80;;;;;;5052878;28;20594;-64
2023/01/08 07:35:24;;;;;;;0.93;0.80;;;16.80;57.10;;;;;;5053232;28;20210;-65
2023/01/08 07:37:50;;;;;;;0.95;0.85;;;16.90;57.20;;;;;;5053201;28;20225;-65
2023/01/08 07:40:15;;;;;;;3.20;0.70;;;16.90;57.20;;;;;;5052951;28;20252;-65
2023/01/08 07:42:41;;;;;;;1.10;0.95;;;16.90;57.20;;;;;;5052663;28;20171;-65
2023/01/08 07:45:07;;;;;;;2.17;1.17;;;16.90;57.10;;;;;;5053184;28;20175;-65
2023/01/08 07:47:32;;;;;;;0.82;0.70;;;16.90;57.10;;;;;;5051753;28;20176;-64
2023/01/08 07:49:58;;;;;;;0.75;0.70;;;16.90;57.10;;;;;;5052481;28;20208;-64
2023/01/08 07:52:23;;;;;;;1.73;0.80;;;16.80;57.10;;;;;;5053285;28;20171;-64
2023/01/08 07:54:49;;;;;;;1.23;0.80;;;16.90;57.20;;;;;;5052300;28;20186;-64
2023/01/08 07:57:14;;;;;;;2.65;1.08;;;16.80;57.10;;;;;;5052978;28;20175;-64
2023/01/08 07:59:40;;;;;;;1.48;1.00;;;16.80;57.10;;;;;;5052894;28;20163;-64
2023/01/08 08:02:05;;;;;;;0.95;0.80;;;16.80;57.10;;;;;;5052773;28;20221;-65
2023/01/08 08:04:31;;;;;;;0.70;0.60;;;16.80;57.00;;;;;;5052448;28;20217;-65
2023/01/08 08:06:57;;;;;;;1.17;1.10;;;16.80;57.00;;;;;;5053129;28;20179;-64
2023/01/08 08:09:22;;;;;;;2.25;1.00;;;16.80;57.00;;;;;;5052472;28;20633;-64
2023/01/08 08:11:48;;;;;;;1.75;0.98;;;16.80;57.00;;;;;;5052326;28;20637;-63
2023/01/08 08:14:13;;;;;;;1.27;0.82;;;16.80;57.00;;;;;;5052724;28;20266;-64
2023/01/08 08:16:39;;;;;;;0.80;0.80;;;16.80;56.90;;;;;;5051659;28;20305;-63
2023/01/08 08:19:04;;;;;;;1.58;0.90;;;16.80;56.90;;;;;;5052790;28;20237;-63
2023/01/08 08:21:30;;;;;;;1.50;0.90;;;16.80;56.90;;;;;;5053032;28;20211;-65
2023/01/08 08:23:56;;;;;;;1.13;1.00;;;16.80;57.00;;;;;;5052220;28;20202;-64
2023/01/08 08:26:22;;;;;;;1.85;0.90;;;16.80;56.90;;;;;;5052805;28;20258;-63
2023/01/08 08:28:47;;;;;;;1.90;0.80;;;16.80;56.90;;;;;;5052582;28;20233;-64
2023/01/08 08:31:13;;;;;;;1.95;0.77;;;16.70;56.90;;;;;;5052072;28;20581;-64
2023/01/08 08:33:38;;;;;;;2.60;0.80;;;16.80;56.90;;;;;;5052254;28;20171;-66
2023/01/08 08:36:04;;;;;;;1.95;0.90;;;16.80;56.90;;;;;;5052201;28;20260;-65
2023/01/08 08:38:30;;;;;;;1.00;0.95;;;16.80;56.80;;;;;;5052352;28;20203;-66
2023/01/08 08:40:55;;;;;;;1.95;0.93;;;16.70;56.80;;;;;;5052542;28;20191;-68
2023/01/08 08:43:21;;;;;;;0.80;0.80;;;16.80;57.60;;;;;;5052233;28;20536;-70
2023/01/08 08:45:46;;;;;;;1.67;1.02;;;16.70;57.00;;;;;;5052023;28;20544;-72
2023/01/08 08:48:12;;;;;;;2.28;1.05;;;16.80;56.90;;;;;;5052483;28;20171;-71
2023/01/08 08:50:37;;;;;;;2.13;1.00;;;16.80;56.80;;;;;;5051823;28;20183;-71
2023/01/08 08:53:04;;;;;;;1.92;0.98;;;16.90;56.70;;;;;;5052437;28;20175;-70
2023/01/08 08:55:29;;;;;;;2.05;1.15;;;16.90;56.70;;;;;;5052458;28;20203;-71
2023/01/08 08:58:01;;;;;;;1.83;1.02;;;16.90;56.60;;;;;;5051615;28;20194;-70
2023/01/08 09:00:27;;;;;;;1.77;1.10;;;16.90;56.50;;;;;;5052214;28;20528;-69
2023/01/08 09:02:52;;;;;;;1.48;0.98;;;17.00;56.70;;;;;;5054000;28;20177;-70
2023/01/08 09:05:18;;;;;;;0.95;0.82;;;17.00;56.60;;;;;;5055552;28;20175;-69
2023/01/08 09:07:43;;;;;;;2.58;0.82;;;17.10;56.70;;;;;;5055705;28;20262;-69
2023/01/08 09:10:09;;;;;;;2.38;1.10;;;17.10;56.80;;;;;;5056182;28;20275;-69
2023/01/08 09:12:34;;;;;;;1.40;0.82;;;17.00;56.70;;;;;;5055208;28;20195;-70
2023/01/08 09:15:00;;;;;;;2.58;1.00;;;17.10;56.90;;;;;;5055757;28;20203;-71
2023/01/08 09:17:25;;;;;;;1.38;0.90;;;17.10;56.80;;;;;;5056234;28;20213;-69
2023/01/08 09:19:51;;;;;;;2.38;0.90;;;17.10;56.80;;;;;;5054760;28;20218;-71
2023/01/08 09:22:16;;;;;;;1.50;1.00;;;17.10;56.80;;;;;;5055974;28;20186;-72
2023/01/08 09:24:42;;;;;;;1.38;0.70;;;17.20;56.70;;;;;;5055558;28;20657;-71
2023/01/08 09:27:07;;;;;;;2.20;1.10;;;17.20;56.60;;;;;;5055043;28;20625;-71
2023/01/08 09:29:33;;;;;;;2.05;1.00;;;17.20;56.60;;;;;;5055435;28;20183;-68
2023/01/08 09:31:59;;;;;;;3.25;1.05;;;17.20;56.80;;;;;;5055781;28;20220;-70
2023/01/08 09:34:25;;;;;;;2.40;1.17;;;17.20;56.80;;;;;;5055113;28;20258;-70
2023/01/08 09:36:51;;;;;;;2.00;1.00;;;17.20;56.80;;;;;;5055308;28;20711;-69
2023/01/08 09:39:16;;;;;;;2.60;1.00;;;17.10;56.80;;;;;;5055107;28;20568;-71
2023/01/08 09:41:44;;;;;;;1.50;0.90;;;17.10;56.90;;;;;;5055118;28;20211;-70
2023/01/08 09:44:15;;;;;;;0.95;0.93;;;17.10;57.00;;;;;;5054310;28;20175;-71
2023/01/08 09:46:40;;;;;;;1.25;0.82;;;17.00;57.00;;;;;;5053722;28;20233;-72
2023/01/08 09:49:06;;;;;;;3.13;1.15;;;17.00;57.00;;;;;;5054012;28;20171;-70
2023/01/08 09:51:35;;;;;;;0.95;0.88;;;17.00;57.10;;;;;;5053913;28;20178;-72
2023/01/08 09:54:01;;;;;;;1.48;1.23;;;17.00;57.20;;;;;;5053629;28;20216;-72
2023/01/08 09:56:26;;;;;;;2.25;1.00;;;16.90;57.20;;;;;;5054731;28;20289;-71
2023/01/08 09:58:59;;;;;;;1.50;1.05;;;17.00;57.20;;;;;;5053962;28;20171;-71
2023/01/08 10:01:27;;;;;;;2.03;0.95;;;16.90;57.30;;;;;;5054762;28;20194;-68
2023/01/08 10:04:03;;;;;;;2.30;1.17;;;16.90;57.00;;;;;;5037148;28;20258;-71
2023/01/08 10:06:30;;;;;;;2.95;1.00;;;16.80;56.70;;;;;;5054243;28;20171;-69
2023/01/08 10:08:55;;;;;;;2.38;1.10;;;16.80;56.90;;;;;;5053999;28;20764;-67
2023/01/08 10:11:21;;;;;;;2.58;1.42;;;16.80;57.00;;;;;;5053965;28;20270;-67
2023/01/08 10:13:52;;;;;;;1.55;1.00;;;16.80;56.80;;;;;;5053078;28;20171;-67
2023/01/08 10:16:29;;;;;;;2.28;1.38;;;16.90;56.70;;;;;;5052712;28;20211;-72
2023/01/08 10:18:55;;;;;;;2.97;1.02;;;16.80;57.50;;;;;;5054342;28;20267;-69
2023/01/08 10:21:22;;;;;;;2.42;1.17;;;16.80;57.30;;;;;;5054585;28;20172;-68
2023/01/08 10:23:50;;;;;;;1.92;1.10;;;16.80;57.20;;;;;;5036554;28;20202;-72
2023/01/08 10:26:35;;;;;;;4.32;1.23;;;16.80;57.20;;;;;;5054852;28;20228;-71
2023/01/08 10:29:14;;;;;;;2.92;1.05;;;16.80;57.00;;;;;;5054202;28;20179;-68
2023/01/08 10:31:48;;;;;;;2.60;1.08;;;16.90;57.00;;;;;;5054112;28;20531;-68
2023/01/08 10:34:48;;;;;;;1.95;1.40;;;16.90;56.90;;;;;;5054809;28;20594;-68
2023/01/08 10:37:34;;;;;;;2.78;1.02;;;16.90;56.90;;;;;;5051880;28;20280;-67
2023/01/08 10:40:19;;;;;;;1.77;1.08;;;16.90;57.50;;;;;;5053090;28;20179;-68
2023/01/08 10:42:45;;;;;;;2.28;1.02;;;17.00;56.80;;;;;;5052607;28;20621;-68
2023/01/08 10:45:19;;;;;;;2.13;1.10;;;17.00;56.80;;;;;;5052898;28;20183;-67
2023/01/08 10:47:46;;;;;;;1.33;0.95;;;17.10;56.70;;;;;;5054196;28;20189;-69
2023/01/08 10:50:23;;;;;;;3.15;1.10;;;17.10;56.60;;;;;;5053886;28;20183;-70
2023/01/08 10:52:56;;;;;;;1.98;1.02;;;17.10;56.60;;;;;;5036474;28;20174;-70
2023/01/08 10:55:27;;;;;;;1.90;0.93;;;17.10;56.60;;;;;;5052942;28;20207;-69
2023/01/08 10:58:02;;;;;;;1.70;1.00;;;17.10;56.60;;;;;;5053389;28;20202;-70
2023/01/08 11:00:29;;;;;;;2.30;1.15;;;17.10;56.60;;;;;;5054437;28;20178;-68
2023/01/08 11:03:06;;;;;;;1.70;1.13;;;17.10;56.50;;;;;;5053983;28;20183;-70
2023/01/08 11:05:38;;;;;;;2.42;1.05;;;17.10;56.50;;;;;;5053127;28;20163;-71
2023/01/08 11:08:12;;;;;;;3.03;1.00;;;17.10;56.50;;;;;;5052580;28;20261;-67
2023/01/08 11:10:38;;;;;;;1.35;1.10;;;17.20;56.50;;;;;;5053037;28;20544;-69
2023/01/08 11:13:05;;;;;;;3.25;1.40;;;17.20;56.60;;;;;;5052358;28;20182;-68
2023/01/08 11:15:37;;;;;;;3.40;1.17;;;17.10;56.50;;;;;;5036187;28;20675;-69
2023/01/08 11:18:22;;;;;;;2.90;1.30;;;17.20;56.50;;;;;;5052301;28;20211;-70
2023/01/08 11:20:48;;;;;;;1.80;1.00;;;17.10;56.60;;;;;;5051621;28;20283;-70
2023/01/08 11:23:18;;;;;;;4.45;1.15;;;17.10;56.80;;;;;;5052604;28;20262;-69
2023/01/08 11:25:50;;;;;;;3.15;1.38;;;17.10;56.80;;;;;;5052163;28;20232;-69
2023/01/08 11:28:18;;;;;;;2.15;1.10;;;17.10;56.90;;;;;;5053314;28;20183;-69
2023/01/08 11:30:48;;;;;;;1.63;1.10;;;17.10;56.80;;;;;;5052253;28;20335;-70
2023/01/08 11:33:17;;;;;;;2.25;0.90;;;17.10;56.80;;;;;;5051633;28;20630;-68
2023/01/08 11:35:48;;;;;;;2.85;1.13;;;17.10;56.90;;;;;;5051658;28;20214;-69
2023/01/08 11:38:13;;;;;;;3.10;0.95;;;17.10;57.00;;;;;;5036273;28;20180;-70
2023/01/08 11:41:05;;;;;;;3.05;1.20;;;17.10;56.80;;;;;;5052173;28;20206;-68
2023/01/08 11:44:10;;;;;;;2.47;0.85;;;17.10;57.20;;;;;;5053068;28;20178;-70
2023/01/08 11:46:51;;;;;;;3.15;1.42;;;17.10;56.90;;;;;;5051498;28;20214;-70
2023/01/08 11:49:39;;;;;;;1.20;0.80;;;17.00;56.70;;;;;;5051902;28;20187;-68
2023/01/08 11:52:22;;;;;;;2.92;1.20;;;17.00;56.70;;;;;;5053065;28;20255;-68
2023/01/08 11:55:02;;;;;;;2.83;1.40;;;17.00;56.70;;;;;;5051872;28;20629;-69
2023/01/08 11:57:48;;;;;;;2.25;1.10;;;17.00;56.80;;;;;;5036236;28;20190;-67
2023/01/08 12:00:32;;;;;;;2.63;1.20;;;17.00;57.10;;;;;;5052549;28;20194;-67
2023/01/08 12:03:10;;;;;;;3.75;1.27;;;17.00;56.90;;;;;;5038344;28;20203;-64
2023/01/08 12:06:12;;;;;;;3.63;1.33;;;17.10;57.40;;;;;;5052720;28;20175;-66
2023/01/08 12:09:09;;;;;;;3.17;1.30;;;17.10;56.90;;;;;;5050631;28;20220;-69
2023/01/08 12:11:43;;;;;;;4.30;1.20;;;17.20;57.10;;;;;;5052644;28;20270;-70
2023/01/08 12:14:19;;;;;;;2.20;0.93;;;17.20;57.00;;;;;;5051136;28;20574;-69
2023/01/08 12:17:13;;;;;;;1.67;1.00;;;17.20;57.00;;;;;;5052465;28;20287;-69
2023/01/08 12:19:49;;;;;;;2.08;1.05;;;17.30;57.00;;;;;;5051152;28;20284;-70
2023/01/08 12:22:31;;;;;;;1.75;1.08;;;17.30;57.00;;;;;;5052014;28;20233;-69
2023/01/08 12:25:07;;;;;;;2.70;1.10;;;17.30;57.00;;;;;;5053032;28;20252;-70
2023/01/08 12:27:42;;;;;;;2.50;1.30;;;17.30;57.00;;;;;;5051121;28;20224;-71
2023/01/08 12:30:28;;;;;;;2.28;0.70;;;17.30;57.00;;;;;;5052033;28;20259;-68
2023/01/08 12:32:57;;;;;;;1.55;0.95;;;17.30;57.60;;;;;;5052196;28;20537;-66
2023/01/08 12:35:25;;;;;;;2.15;1.08;;;17.30;57.00;;;;;;5050826;28;20692;-68
2023/01/08 12:37:54;;;;;;;2.38;1.08;;;17.30;57.10;;;;;;5054167;28;20626;-68
2023/01/08 12:40:25;;;;;;;1.48;1.00;;;17.30;57.00;;;;;;5056700;28;20182;-68
2023/01/08 12:42:50;;;;;;;1.45;0.88;;;17.30;57.20;;;;;;5054652;28;20270;-69
2023/01/08 12:45:21;;;;;;;2.28;1.00;;;17.30;57.30;;;;;;5055081;28;20266;-68
2023/01/08 12:47:49;;;;;;;4.43;1.02;;;17.30;57.30;;;;;;5055324;28;20176;-70
2023/01/08 12:50:31;;;;;;;2.58;0.90;;;17.30;57.20;;;;;;5054534;28;20222;-68
2023/01/08 12:53:08;;;;;;;2.60;1.00;;;17.20;57.10;;;;;;5055393;28;20175;-69
2023/01/08 12:56:24;;;;;;;1.63;1.05;;;17.30;57.20;;;;;;5054849;28;20206;-70
2023/01/08 12:59:20;;;;;;;3.05;0.90;;;17.30;57.20;;;;;;5033820;28;20266;-68